sensor_id;sensor_type;location;lat;lon;timestamp;P1;durP1;ratioP1;P2;durP2;ratioP2
11911;SDS011;6016;41.928;25.556;2022-09-25T00:01:48;4.47;;;3.58;;
11911;SDS011;6016;41.928;25.556;2022-09-25T00:04:15;8.30;;;3.63;;
11911;SDS011;6016;41.928;25.556;2022-09-25T00:06:44;4.25;;;3.42;;
11911;SDS011;6016;41.928;25.556;2022-09-25T00:09:12;5.82;;;3.83;;
11911;SDS011;6016;41.928;25.556;2022-09-25T00:11:44;6.07;;;3.90;;
11911;SDS011;6016;41.928;25.556;2022-09-25T00:14:12;4.35;;;3.53;;
11911;SDS011;6016;41.928;25.556;2022-09-25T00:16:39;5.13;;;3.97;;
11911;SDS011;6016;41.928;25.556;2022-09-25T00:19:06;4.85;;;3.90;;
11911;SDS011;6016;41.928;25.556;2022-09-25T00:21:52;5.80;;;3.90;;
11911;SDS011;6016;41.928;25.556;2022-09-25T00:24:19;5.40;;;3.40;;
11911;SDS011;6016;41.928;25.556;2022-09-25T00:26:46;5.78;;;3.67;;
11911;SDS011;6016;41.928;25.556;2022-09-25T00:29:15;8.02;;;3.60;;
11911;SDS011;6016;41.928;25.556;2022-09-25T00:31:43;5.90;;;3.83;;
11911;SDS011;6016;41.928;25.556;2022-09-25T00:34:10;5.32;;;4.07;;
11911;SDS011;6016;41.928;25.556;2022-09-25T00:36:37;9.75;;;4.00;;
11911;SDS011;6016;41.928;25.556;2022-09-25T00:39:04;3.80;;;3.35;;
11911;SDS011;6016;41.928;25.556;2022-09-25T00:41:31;4.25;;;3.55;;
11911;SDS011;6016;41.928;25.556;2022-09-25T00:43:59;4.13;;;3.40;;
11911;SDS011;6016;41.928;25.556;2022-09-25T00:46:29;5.72;;;3.90;;
11911;SDS011;6016;41.928;25.556;2022-09-25T00:49:00;4.55;;;3.58;;
11911;SDS011;6016;41.928;25.556;2022-09-25T00:51:31;5.93;;;3.40;;
11911;SDS011;6016;41.928;25.556;2022-09-25T00:54:05;4.95;;;3.50;;
11911;SDS011;6016;41.928;25.556;2022-09-25T00:56:36;5.45;;;3.72;;
11911;SDS011;6016;41.928;25.556;2022-09-25T00:59:07;4.07;;;3.50;;
11911;SDS011;6016;41.928;25.556;2022-09-25T01:01:38;4.85;;;3.60;;
11911;SDS011;6016;41.928;25.556;2022-09-25T01:04:05;4.03;;;3.40;;
11911;SDS011;6016;41.928;25.556;2022-09-25T01:06:32;4.78;;;3.70;;
11911;SDS011;6016;41.928;25.556;2022-09-25T01:09:01;5.05;;;3.58;;
11911;SDS011;6016;41.928;25.556;2022-09-25T01:11:28;4.68;;;3.65;;
11911;SDS011;6016;41.928;25.556;2022-09-25T01:13:55;4.40;;;3.47;;
11911;SDS011;6016;41.928;25.556;2022-09-25T01:16:27;3.90;;;3.10;;
11911;SDS011;6016;41.928;25.556;2022-09-25T01:19:04;4.22;;;3.40;;
11911;SDS011;6016;41.928;25.556;2022-09-25T01:21:41;4.13;;;3.05;;
11911;SDS011;6016;41.928;25.556;2022-09-25T01:29:52;4.18;;;3.40;;
11911;SDS011;6016;41.928;25.556;2022-09-25T01:32:27;4.72;;;3.25;;
11911;SDS011;6016;41.928;25.556;2022-09-25T01:35:01;4.63;;;3.17;;
11911;SDS011;6016;41.928;25.556;2022-09-25T01:37:35;4.72;;;3.50;;
11911;SDS011;6016;41.928;25.556;2022-09-25T01:40:06;3.75;;;2.90;;
11911;SDS011;6016;41.928;25.556;2022-09-25T01:42:39;4.55;;;3.20;;
11911;SDS011;6016;41.928;25.556;2022-09-25T01:45:12;4.43;;;3.10;;
11911;SDS011;6016;41.928;25.556;2022-09-25T01:47:44;3.90;;;3.08;;
11911;SDS011;6016;41.928;25.556;2022-09-25T01:50:15;4.53;;;3.47;;
11911;SDS011;6016;41.928;25.556;2022-09-25T01:52:47;4.13;;;3.25;;
11911;SDS011;6016;41.928;25.556;2022-09-25T01:55:17;4.63;;;3.60;;
11911;SDS011;6016;41.928;25.556;2022-09-25T01:57:49;4.15;;;3.15;;
11911;SDS011;6016;41.928;25.556;2022-09-25T02:00:25;4.55;;;3.08;;
11911;SDS011;6016;41.928;25.556;2022-09-25T02:02:53;3.58;;;2.85;;
11911;SDS011;6016;41.928;25.556;2022-09-25T02:05:26;3.55;;;3.17;;
11911;SDS011;6016;41.928;25.556;2022-09-25T02:07:57;4.32;;;3.22;;
11911;SDS011;6016;41.928;25.556;2022-09-25T02:10:29;4.68;;;3.25;;
11911;SDS011;6016;41.928;25.556;2022-09-25T02:13:03;6.13;;;3.50;;
11911;SDS011;6016;41.928;25.556;2022-09-25T02:15:36;4.35;;;3.45;;
11911;SDS011;6016;41.928;25.556;2022-09-25T02:20:55;6.90;;;3.33;;
11911;SDS011;6016;41.928;25.556;2022-09-25T02:23:28;4.22;;;3.60;;
11911;SDS011;6016;41.928;25.556;2022-09-25T02:26:03;4.07;;;3.40;;
11911;SDS011;6016;41.928;25.556;2022-09-25T02:28:32;6.18;;;3.13;;
11911;SDS011;6016;41.928;25.556;2022-09-25T02:31:01;4.22;;;3.33;;
11911;SDS011;6016;41.928;25.556;2022-09-25T02:33:32;4.63;;;3.22;;
11911;SDS011;6016;41.928;25.556;2022-09-25T02:36:00;4.13;;;3.20;;
11911;SDS011;6016;41.928;25.556;2022-09-25T02:38:29;3.88;;;3.47;;
11911;SDS011;6016;41.928;25.556;2022-09-25T02:40:59;3.97;;;3.20;;
11911;SDS011;6016;41.928;25.556;2022-09-25T02:43:37;4.05;;;3.38;;
11911;SDS011;6016;41.928;25.556;2022-09-25T02:46:14;4.28;;;3.47;;
11911;SDS011;6016;41.928;25.556;2022-09-25T02:48:48;4.05;;;3.30;;
11911;SDS011;6016;41.928;25.556;2022-09-25T02:51:21;5.95;;;3.65;;
11911;SDS011;6016;41.928;25.556;2022-09-25T02:53:54;3.95;;;3.20;;
11911;SDS011;6016;41.928;25.556;2022-09-25T02:56:31;4.97;;;3.53;;
11911;SDS011;6016;41.928;25.556;2022-09-25T02:59:01;4.63;;;3.63;;
11911;SDS011;6016;41.928;25.556;2022-09-25T03:01:33;6.93;;;3.22;;
11911;SDS011;6016;41.928;25.556;2022-09-25T03:04:02;3.58;;;2.90;;
11911;SDS011;6016;41.928;25.556;2022-09-25T03:06:31;4.00;;;3.22;;
11911;SDS011;6016;41.928;25.556;2022-09-25T03:08:58;5.50;;;3.70;;
11911;SDS011;6016;41.928;25.556;2022-09-25T03:11:26;6.00;;;3.40;;
11911;SDS011;6016;41.928;25.556;2022-09-25T03:13:54;4.68;;;3.45;;
11911;SDS011;6016;41.928;25.556;2022-09-25T03:16:23;5.53;;;3.42;;
11911;SDS011;6016;41.928;25.556;2022-09-25T03:18:59;4.43;;;3.42;;
11911;SDS011;6016;41.928;25.556;2022-09-25T03:21:26;4.35;;;3.33;;
11911;SDS011;6016;41.928;25.556;2022-09-25T03:23:53;4.95;;;3.20;;
11911;SDS011;6016;41.928;25.556;2022-09-25T03:26:21;5.22;;;3.38;;
11911;SDS011;6016;41.928;25.556;2022-09-25T03:28:48;5.53;;;3.38;;
11911;SDS011;6016;41.928;25.556;2022-09-25T03:31:16;3.72;;;3.25;;
11911;SDS011;6016;41.928;25.556;2022-09-25T03:33:43;4.97;;;3.33;;
11911;SDS011;6016;41.928;25.556;2022-09-25T03:36:12;5.68;;;3.20;;
11911;SDS011;6016;41.928;25.556;2022-09-25T03:38:40;4.35;;;3.20;;
11911;SDS011;6016;41.928;25.556;2022-09-25T03:41:10;4.25;;;3.13;;
11911;SDS011;6016;41.928;25.556;2022-09-25T03:43:40;3.97;;;3.33;;
11911;SDS011;6016;41.928;25.556;2022-09-25T03:46:08;4.30;;;3.28;;
11911;SDS011;6016;41.928;25.556;2022-09-25T03:48:37;5.15;;;3.40;;
11911;SDS011;6016;41.928;25.556;2022-09-25T03:51:05;5.22;;;3.35;;
11911;SDS011;6016;41.928;25.556;2022-09-25T03:53:33;4.20;;;3.20;;
11911;SDS011;6016;41.928;25.556;2022-09-25T03:56:02;6.53;;;3.72;;
11911;SDS011;6016;41.928;25.556;2022-09-25T03:58:30;4.70;;;3.25;;
11911;SDS011;6016;41.928;25.556;2022-09-25T04:00:57;5.53;;;3.75;;
11911;SDS011;6016;41.928;25.556;2022-09-25T04:03:24;4.60;;;3.58;;
11911;SDS011;6016;41.928;25.556;2022-09-25T04:05:53;4.60;;;3.40;;
11911;SDS011;6016;41.928;25.556;2022-09-25T04:08:20;4.78;;;3.08;;
11911;SDS011;6016;41.928;25.556;2022-09-25T04:10:48;5.20;;;3.30;;
11911;SDS011;6016;41.928;25.556;2022-09-25T04:13:15;4.25;;;3.38;;
11911;SDS011;6016;41.928;25.556;2022-09-25T04:15:43;5.40;;;3.90;;
11911;SDS011;6016;41.928;25.556;2022-09-25T04:18:11;5.70;;;4.45;;
11911;SDS011;6016;41.928;25.556;2022-09-25T04:20:38;5.03;;;3.70;;
11911;SDS011;6016;41.928;25.556;2022-09-25T04:23:05;6.90;;;3.92;;
11911;SDS011;6016;41.928;25.556;2022-09-25T04:25:32;5.95;;;4.10;;
11911;SDS011;6016;41.928;25.556;2022-09-25T04:28:00;6.90;;;4.05;;
11911;SDS011;6016;41.928;25.556;2022-09-25T04:30:29;5.10;;;3.92;;
11911;SDS011;6016;41.928;25.556;2022-09-25T04:32:56;6.28;;;4.00;;
11911;SDS011;6016;41.928;25.556;2022-09-25T04:35:40;6.22;;;4.07;;
11911;SDS011;6016;41.928;25.556;2022-09-25T04:38:07;7.78;;;4.07;;
11911;SDS011;6016;41.928;25.556;2022-09-25T04:40:34;6.72;;;4.88;;
11911;SDS011;6016;41.928;25.556;2022-09-25T04:43:04;8.00;;;4.75;;
11911;SDS011;6016;41.928;25.556;2022-09-25T04:45:32;6.65;;;4.65;;
11911;SDS011;6016;41.928;25.556;2022-09-25T04:48:01;5.25;;;4.28;;
11911;SDS011;6016;41.928;25.556;2022-09-25T04:50:29;5.35;;;4.28;;
11911;SDS011;6016;41.928;25.556;2022-09-25T04:52:56;6.88;;;4.05;;
11911;SDS011;6016;41.928;25.556;2022-09-25T04:55:24;7.28;;;4.18;;
11911;SDS011;6016;41.928;25.556;2022-09-25T04:57:51;5.30;;;4.15;;
11911;SDS011;6016;41.928;25.556;2022-09-25T05:00:21;6.13;;;3.63;;
11911;SDS011;6016;41.928;25.556;2022-09-25T05:02:49;5.50;;;3.60;;
11911;SDS011;6016;41.928;25.556;2022-09-25T05:05:16;6.57;;;3.90;;
11911;SDS011;6016;41.928;25.556;2022-09-25T05:07:49;7.10;;;4.07;;
11911;SDS011;6016;41.928;25.556;2022-09-25T05:10:16;8.55;;;4.10;;
11911;SDS011;6016;41.928;25.556;2022-09-25T05:12:44;6.25;;;4.00;;
11911;SDS011;6016;41.928;25.556;2022-09-25T05:15:11;7.10;;;4.13;;
11911;SDS011;6016;41.928;25.556;2022-09-25T05:17:40;5.63;;;4.20;;
11911;SDS011;6016;41.928;25.556;2022-09-25T05:20:07;9.57;;;4.45;;
11911;SDS011;6016;41.928;25.556;2022-09-25T05:22:35;7.55;;;4.05;;
11911;SDS011;6016;41.928;25.556;2022-09-25T05:25:02;9.48;;;4.60;;
11911;SDS011;6016;41.928;25.556;2022-09-25T05:27:30;5.80;;;4.30;;
11911;SDS011;6016;41.928;25.556;2022-09-25T05:29:57;6.40;;;4.43;;
11911;SDS011;6016;41.928;25.556;2022-09-25T05:32:24;7.05;;;4.93;;
11911;SDS011;6016;41.928;25.556;2022-09-25T05:34:52;8.98;;;4.68;;
11911;SDS011;6016;41.928;25.556;2022-09-25T05:37:19;7.13;;;4.50;;
11911;SDS011;6016;41.928;25.556;2022-09-25T05:39:46;6.85;;;4.15;;
11911;SDS011;6016;41.928;25.556;2022-09-25T05:42:13;8.52;;;4.45;;
11911;SDS011;6016;41.928;25.556;2022-09-25T05:44:43;5.68;;;4.35;;
11911;SDS011;6016;41.928;25.556;2022-09-25T05:47:10;7.75;;;4.50;;
11911;SDS011;6016;41.928;25.556;2022-09-25T05:49:37;7.78;;;4.57;;
11911;SDS011;6016;41.928;25.556;2022-09-25T05:52:05;9.15;;;4.40;;
11911;SDS011;6016;41.928;25.556;2022-09-25T05:54:32;9.77;;;4.75;;
11911;SDS011;6016;41.928;25.556;2022-09-25T05:56:59;5.75;;;4.22;;
11911;SDS011;6016;41.928;25.556;2022-09-25T05:59:25;6.95;;;3.88;;
11911;SDS011;6016;41.928;25.556;2022-09-25T06:01:52;16.77;;;8.98;;
11911;SDS011;6016;41.928;25.556;2022-09-25T06:04:19;12.48;;;7.45;;
11911;SDS011;6016;41.928;25.556;2022-09-25T06:06:46;8.00;;;4.88;;
11911;SDS011;6016;41.928;25.556;2022-09-25T06:09:14;6.90;;;4.15;;
11911;SDS011;6016;41.928;25.556;2022-09-25T06:11:41;5.95;;;3.90;;
11911;SDS011;6016;41.928;25.556;2022-09-25T06:14:11;7.68;;;4.40;;
11911;SDS011;6016;41.928;25.556;2022-09-25T06:16:38;5.18;;;3.90;;
11911;SDS011;6016;41.928;25.556;2022-09-25T06:19:05;5.55;;;4.10;;
11911;SDS011;6016;41.928;25.556;2022-09-25T06:21:32;5.32;;;3.83;;
11911;SDS011;6016;41.928;25.556;2022-09-25T06:23:59;4.88;;;3.60;;
11911;SDS011;6016;41.928;25.556;2022-09-25T06:26:27;8.10;;;3.80;;
11911;SDS011;6016;41.928;25.556;2022-09-25T06:28:55;11.82;;;7.55;;
11911;SDS011;6016;41.928;25.556;2022-09-25T06:31:24;37.13;;;18.95;;
11911;SDS011;6016;41.928;25.556;2022-09-25T06:33:51;19.65;;;9.40;;
11911;SDS011;6016;41.928;25.556;2022-09-25T06:36:18;9.90;;;4.97;;
11911;SDS011;6016;41.928;25.556;2022-09-25T06:38:45;5.47;;;3.90;;
11911;SDS011;6016;41.928;25.556;2022-09-25T06:41:13;6.88;;;4.03;;
11911;SDS011;6016;41.928;25.556;2022-09-25T06:43:42;19.17;;;11.20;;
11911;SDS011;6016;41.928;25.556;2022-09-25T06:46:08;34.05;;;19.33;;
11911;SDS011;6016;41.928;25.556;2022-09-25T06:48:35;58.33;;;32.17;;
11911;SDS011;6016;41.928;25.556;2022-09-25T06:51:02;22.80;;;9.80;;
11911;SDS011;6016;41.928;25.556;2022-09-25T06:53:31;6.22;;;4.43;;
11911;SDS011;6016;41.928;25.556;2022-09-25T06:55:58;6.15;;;4.30;;
11911;SDS011;6016;41.928;25.556;2022-09-25T06:58:25;5.43;;;3.83;;
11911;SDS011;6016;41.928;25.556;2022-09-25T07:00:53;5.55;;;4.05;;
11911;SDS011;6016;41.928;25.556;2022-09-25T07:03:21;5.03;;;3.90;;
11911;SDS011;6016;41.928;25.556;2022-09-25T07:06:07;4.82;;;4.07;;
11911;SDS011;6016;41.928;25.556;2022-09-25T07:08:36;6.32;;;4.03;;
11911;SDS011;6016;41.928;25.556;2022-09-25T07:11:03;5.57;;;4.30;;
11911;SDS011;6016;41.928;25.556;2022-09-25T07:13:31;7.90;;;4.10;;
11911;SDS011;6016;41.928;25.556;2022-09-25T07:16:01;7.15;;;4.10;;
11911;SDS011;6016;41.928;25.556;2022-09-25T07:18:29;5.97;;;3.72;;
11911;SDS011;6016;41.928;25.556;2022-09-25T07:20:59;6.40;;;4.60;;
11911;SDS011;6016;41.928;25.556;2022-09-25T07:23:27;7.93;;;4.35;;
11911;SDS011;6016;41.928;25.556;2022-09-25T07:25:55;6.25;;;4.35;;
11911;SDS011;6016;41.928;25.556;2022-09-25T07:28:23;6.20;;;4.28;;
11911;SDS011;6016;41.928;25.556;2022-09-25T07:30:50;8.82;;;4.40;;
11911;SDS011;6016;41.928;25.556;2022-09-25T07:33:18;9.13;;;4.35;;
11911;SDS011;6016;41.928;25.556;2022-09-25T07:35:49;6.85;;;4.47;;
11911;SDS011;6016;41.928;25.556;2022-09-25T07:38:16;6.55;;;4.28;;
11911;SDS011;6016;41.928;25.556;2022-09-25T07:40:42;8.60;;;4.43;;
11911;SDS011;6016;41.928;25.556;2022-09-25T07:43:09;6.78;;;4.32;;
11911;SDS011;6016;41.928;25.556;2022-09-25T07:45:36;6.82;;;4.00;;
11911;SDS011;6016;41.928;25.556;2022-09-25T07:48:03;6.80;;;3.97;;
11911;SDS011;6016;41.928;25.556;2022-09-25T07:50:31;6.40;;;4.07;;
11911;SDS011;6016;41.928;25.556;2022-09-25T07:52:58;6.32;;;3.88;;
11911;SDS011;6016;41.928;25.556;2022-09-25T07:55:25;4.80;;;3.88;;
11911;SDS011;6016;41.928;25.556;2022-09-25T07:57:55;16.95;;;8.85;;
11911;SDS011;6016;41.928;25.556;2022-09-25T08:00:22;5.40;;;4.18;;
11911;SDS011;6016;41.928;25.556;2022-09-25T08:02:54;8.48;;;3.90;;
11911;SDS011;6016;41.928;25.556;2022-09-25T08:05:21;7.20;;;4.25;;
11911;SDS011;6016;41.928;25.556;2022-09-25T08:07:49;6.78;;;4.53;;
11911;SDS011;6016;41.928;25.556;2022-09-25T08:10:17;8.23;;;4.25;;
11911;SDS011;6016;41.928;25.556;2022-09-25T08:12:44;6.60;;;4.10;;
11911;SDS011;6016;41.928;25.556;2022-09-25T08:15:11;6.75;;;4.68;;
11911;SDS011;6016;41.928;25.556;2022-09-25T08:17:38;7.15;;;4.65;;
11911;SDS011;6016;41.928;25.556;2022-09-25T08:20:06;6.10;;;4.40;;
11911;SDS011;6016;41.928;25.556;2022-09-25T08:22:34;7.55;;;4.40;;
11911;SDS011;6016;41.928;25.556;2022-09-25T08:25:02;5.65;;;4.22;;
11911;SDS011;6016;41.928;25.556;2022-09-25T08:27:29;7.00;;;4.55;;
11911;SDS011;6016;41.928;25.556;2022-09-25T08:29:56;7.40;;;3.85;;
11911;SDS011;6016;41.928;25.556;2022-09-25T08:32:23;6.82;;;4.07;;
11911;SDS011;6016;41.928;25.556;2022-09-25T08:34:50;5.50;;;3.92;;
11911;SDS011;6016;41.928;25.556;2022-09-25T08:37:18;5.78;;;3.97;;
11911;SDS011;6016;41.928;25.556;2022-09-25T08:39:45;6.95;;;3.92;;
11911;SDS011;6016;41.928;25.556;2022-09-25T08:42:14;6.60;;;3.70;;
11911;SDS011;6016;41.928;25.556;2022-09-25T08:44:45;6.00;;;3.47;;
11911;SDS011;6016;41.928;25.556;2022-09-25T08:47:35;8.70;;;4.47;;
11911;SDS011;6016;41.928;25.556;2022-09-25T08:50:21;5.88;;;3.97;;
11911;SDS011;6016;41.928;25.556;2022-09-25T08:52:49;7.95;;;5.65;;
11911;SDS011;6016;41.928;25.556;2022-09-25T08:55:22;6.07;;;3.33;;
11911;SDS011;6016;41.928;25.556;2022-09-25T09:00:46;4.55;;;3.13;;
11911;SDS011;6016;41.928;25.556;2022-09-25T09:03:14;9.43;;;3.15;;
11911;SDS011;6016;41.928;25.556;2022-09-25T09:05:42;4.38;;;2.83;;
11911;SDS011;6016;41.928;25.556;2022-09-25T09:08:11;3.42;;;2.90;;
11911;SDS011;6016;41.928;25.556;2022-09-25T09:10:42;4.88;;;2.80;;
11911;SDS011;6016;41.928;25.556;2022-09-25T09:13:15;3.90;;;3.03;;
11911;SDS011;6016;41.928;25.556;2022-09-25T09:15:47;3.78;;;3.08;;
11911;SDS011;6016;41.928;25.556;2022-09-25T09:18:20;3.30;;;2.92;;
11911;SDS011;6016;41.928;25.556;2022-09-25T09:20:49;3.03;;;2.70;;
11911;SDS011;6016;41.928;25.556;2022-09-25T09:23:18;3.53;;;2.90;;
11911;SDS011;6016;41.928;25.556;2022-09-25T09:25:49;3.67;;;2.90;;
11911;SDS011;6016;41.928;25.556;2022-09-25T09:28:36;3.83;;;2.83;;
11911;SDS011;6016;41.928;25.556;2022-09-25T09:31:23;3.35;;;2.83;;
11911;SDS011;6016;41.928;25.556;2022-09-25T09:33:57;3.92;;;2.58;;
11911;SDS011;6016;41.928;25.556;2022-09-25T09:36:32;4.28;;;2.58;;
11911;SDS011;6016;41.928;25.556;2022-09-25T09:39:06;5.07;;;2.63;;
11911;SDS011;6016;41.928;25.556;2022-09-25T09:41:45;3.10;;;2.60;;
11911;SDS011;6016;41.928;25.556;2022-09-25T09:44:23;2.92;;;2.63;;
11911;SDS011;6016;41.928;25.556;2022-09-25T09:47:02;3.05;;;2.75;;
11911;SDS011;6016;41.928;25.556;2022-09-25T09:49:38;2.30;;;2.10;;
11911;SDS011;6016;41.928;25.556;2022-09-25T09:52:10;4.53;;;2.83;;
11911;SDS011;6016;41.928;25.556;2022-09-25T09:54:42;3.15;;;2.55;;
11911;SDS011;6016;41.928;25.556;2022-09-25T09:57:12;3.38;;;2.58;;
11911;SDS011;6016;41.928;25.556;2022-09-25T09:59:47;3.15;;;2.50;;
11911;SDS011;6016;41.928;25.556;2022-09-25T10:02:29;5.32;;;2.88;;
11911;SDS011;6016;41.928;25.556;2022-09-25T10:05:04;6.80;;;2.65;;
11911;SDS011;6016;41.928;25.556;2022-09-25T10:07:35;4.55;;;2.60;;
11911;SDS011;6016;41.928;25.556;2022-09-25T10:10:08;3.10;;;2.53;;
11911;SDS011;6016;41.928;25.556;2022-09-25T10:12:40;3.08;;;2.33;;
11911;SDS011;6016;41.928;25.556;2022-09-25T10:15:14;3.20;;;2.58;;
11911;SDS011;6016;41.928;25.556;2022-09-25T10:17:44;5.20;;;2.50;;
11911;SDS011;6016;41.928;25.556;2022-09-25T10:20:13;3.28;;;2.50;;
11911;SDS011;6016;41.928;25.556;2022-09-25T10:22:44;2.63;;;2.30;;
11911;SDS011;6016;41.928;25.556;2022-09-25T10:25:11;2.75;;;2.40;;
11911;SDS011;6016;41.928;25.556;2022-09-25T10:27:39;2.42;;;2.22;;
11911;SDS011;6016;41.928;25.556;2022-09-25T10:30:15;3.77;;;2.23;;
11911;SDS011;6016;41.928;25.556;2022-09-25T10:32:45;3.45;;;2.25;;
11911;SDS011;6016;41.928;25.556;2022-09-25T10:35:21;2.13;;;1.92;;
11911;SDS011;6016;41.928;25.556;2022-09-25T10:37:51;2.40;;;2.20;;
11911;SDS011;6016;41.928;25.556;2022-09-25T10:40:22;3.20;;;2.10;;
11911;SDS011;6016;41.928;25.556;2022-09-25T10:43:02;2.10;;;1.90;;
11911;SDS011;6016;41.928;25.556;2022-09-25T10:45:33;2.20;;;2.00;;
11911;SDS011;6016;41.928;25.556;2022-09-25T10:48:18;2.10;;;1.90;;
11911;SDS011;6016;41.928;25.556;2022-09-25T10:51:08;6.55;;;2.78;;
11911;SDS011;6016;41.928;25.556;2022-09-25T10:53:37;2.97;;;1.90;;
11911;SDS011;6016;41.928;25.556;2022-09-25T10:56:04;3.65;;;2.30;;
11911;SDS011;6016;41.928;25.556;2022-09-25T11:01:07;2.45;;;2.20;;
11911;SDS011;6016;41.928;25.556;2022-09-25T11:03:38;2.05;;;1.85;;
11911;SDS011;6016;41.928;25.556;2022-09-25T11:06:15;2.35;;;1.92;;
11911;SDS011;6016;41.928;25.556;2022-09-25T11:08:45;2.63;;;1.88;;
11911;SDS011;6016;41.928;25.556;2022-09-25T11:11:13;2.25;;;2.00;;
11911;SDS011;6016;41.928;25.556;2022-09-25T11:13:47;3.13;;;2.20;;
11911;SDS011;6016;41.928;25.556;2022-09-25T11:16:19;2.30;;;2.10;;
11911;SDS011;6016;41.928;25.556;2022-09-25T11:18:47;2.25;;;2.00;;
11911;SDS011;6016;41.928;25.556;2022-09-25T11:21:16;3.15;;;2.10;;
11911;SDS011;6016;41.928;25.556;2022-09-25T11:24:04;1.80;;;1.70;;
11911;SDS011;6016;41.928;25.556;2022-09-25T11:26:39;2.50;;;2.13;;
11911;SDS011;6016;41.928;25.556;2022-09-25T11:29:12;3.20;;;2.40;;
11911;SDS011;6016;41.928;25.556;2022-09-25T11:31:47;2.35;;;2.00;;
11911;SDS011;6016;41.928;25.556;2022-09-25T11:34:20;2.35;;;1.80;;
11911;SDS011;6016;41.928;25.556;2022-09-25T11:36:59;2.78;;;2.00;;
11911;SDS011;6016;41.928;25.556;2022-09-25T11:39:33;2.28;;;2.05;;
11911;SDS011;6016;41.928;25.556;2022-09-25T11:42:23;2.65;;;1.85;;
11911;SDS011;6016;41.928;25.556;2022-09-25T11:44:57;2.10;;;1.90;;
11911;SDS011;6016;41.928;25.556;2022-09-25T11:47:35;1.85;;;1.70;;
11911;SDS011;6016;41.928;25.556;2022-09-25T11:50:06;2.00;;;1.80;;
11911;SDS011;6016;41.928;25.556;2022-09-25T11:52:41;2.00;;;1.80;;
11911;SDS011;6016;41.928;25.556;2022-09-25T11:58:39;1.92;;;1.83;;
11911;SDS011;6016;41.928;25.556;2022-09-25T12:01:23;2.97;;;1.77;;
11911;SDS011;6016;41.928;25.556;2022-09-25T12:04:06;2.15;;;1.80;;
11911;SDS011;6016;41.928;25.556;2022-09-25T12:07:14;3.53;;;2.15;;
11911;SDS011;6016;41.928;25.556;2022-09-25T12:09:59;2.83;;;1.90;;
11911;SDS011;6016;41.928;25.556;2022-09-25T12:12:47;2.17;;;1.90;;
11911;SDS011;6016;41.928;25.556;2022-09-25T12:15:25;1.90;;;1.80;;
11911;SDS011;6016;41.928;25.556;2022-09-25T12:18:01;3.58;;;2.00;;
11911;SDS011;6016;41.928;25.556;2022-09-25T12:20:41;2.08;;;1.60;;
11911;SDS011;6016;41.928;25.556;2022-09-25T12:23:16;2.85;;;1.80;;
11911;SDS011;6016;41.928;25.556;2022-09-25T12:26:05;2.55;;;1.60;;
11911;SDS011;6016;41.928;25.556;2022-09-25T12:28:45;2.08;;;1.88;;
11911;SDS011;6016;41.928;25.556;2022-09-25T12:31:34;2.10;;;1.80;;
11911;SDS011;6016;41.928;25.556;2022-09-25T12:34:14;3.33;;;1.90;;
11911;SDS011;6016;41.928;25.556;2022-09-25T12:36:53;2.10;;;1.90;;
11911;SDS011;6016;41.928;25.556;2022-09-25T12:39:27;3.45;;;1.90;;
11911;SDS011;6016;41.928;25.556;2022-09-25T12:42:02;2.47;;;1.60;;
11911;SDS011;6016;41.928;25.556;2022-09-25T12:44:37;1.85;;;1.63;;
11911;SDS011;6016;41.928;25.556;2022-09-25T12:47:11;2.08;;;1.58;;
11911;SDS011;6016;41.928;25.556;2022-09-25T12:49:45;1.95;;;1.63;;
11911;SDS011;6016;41.928;25.556;2022-09-25T12:52:19;1.90;;;1.70;;
11911;SDS011;6016;41.928;25.556;2022-09-25T12:54:51;1.70;;;1.60;;
11911;SDS011;6016;41.928;25.556;2022-09-25T12:57:22;2.70;;;1.77;;
11911;SDS011;6016;41.928;25.556;2022-09-25T12:59:54;2.95;;;1.88;;
11911;SDS011;6016;41.928;25.556;2022-09-25T13:02:25;2.53;;;1.85;;
11911;SDS011;6016;41.928;25.556;2022-09-25T13:04:57;5.10;;;1.90;;
11911;SDS011;6016;41.928;25.556;2022-09-25T13:07:33;2.35;;;1.70;;
11911;SDS011;6016;41.928;25.556;2022-09-25T13:10:08;3.17;;;1.60;;
11911;SDS011;6016;41.928;25.556;2022-09-25T13:12:47;2.20;;;1.90;;
11911;SDS011;6016;41.928;25.556;2022-09-25T13:15:16;3.13;;;1.80;;
11911;SDS011;6016;41.928;25.556;2022-09-25T13:23:29;4.97;;;2.70;;
11911;SDS011;6016;41.928;25.556;2022-09-25T13:26:00;3.30;;;1.77;;
11911;SDS011;6016;41.928;25.556;2022-09-25T13:28:36;3.78;;;2.40;;
11911;SDS011;6016;41.928;25.556;2022-09-25T13:31:06;4.90;;;3.05;;
11911;SDS011;6016;41.928;25.556;2022-09-25T13:33:37;8.63;;;2.95;;
11911;SDS011;6016;41.928;25.556;2022-09-25T13:36:12;4.45;;;2.40;;
11911;SDS011;6016;41.928;25.556;2022-09-25T13:38:57;6.40;;;3.65;;
11911;SDS011;6016;41.928;25.556;2022-09-25T13:41:47;2.75;;;2.03;;
11911;SDS011;6016;41.928;25.556;2022-09-25T13:50:16;3.13;;;1.98;;
11911;SDS011;6016;41.928;25.556;2022-09-25T13:52:51;2.10;;;1.83;;
11911;SDS011;6016;41.928;25.556;2022-09-25T13:56:11;2.95;;;1.90;;
11911;SDS011;6016;41.928;25.556;2022-09-25T13:58:59;2.38;;;2.00;;
11911;SDS011;6016;41.928;25.556;2022-09-25T14:01:32;2.10;;;1.90;;
11911;SDS011;6016;41.928;25.556;2022-09-25T14:04:06;2.88;;;2.35;;
11911;SDS011;6016;41.928;25.556;2022-09-25T14:06:35;4.65;;;1.80;;
11911;SDS011;6016;41.928;25.556;2022-09-25T14:09:05;2.30;;;1.88;;
11911;SDS011;6016;41.928;25.556;2022-09-25T14:11:36;3.00;;;2.05;;
11911;SDS011;6016;41.928;25.556;2022-09-25T14:14:05;2.92;;;2.10;;
11911;SDS011;6016;41.928;25.556;2022-09-25T14:16:39;5.68;;;1.88;;
11911;SDS011;6016;41.928;25.556;2022-09-25T14:19:15;4.22;;;2.00;;
11911;SDS011;6016;41.928;25.556;2022-09-25T14:21:44;2.55;;;1.90;;
11911;SDS011;6016;41.928;25.556;2022-09-25T14:24:17;2.10;;;1.90;;
11911;SDS011;6016;41.928;25.556;2022-09-25T14:26:47;2.13;;;1.88;;
11911;SDS011;6016;41.928;25.556;2022-09-25T14:29:16;2.10;;;1.90;;
11911;SDS011;6016;41.928;25.556;2022-09-25T14:31:47;2.22;;;1.80;;
11911;SDS011;6016;41.928;25.556;2022-09-25T14:34:28;2.70;;;2.15;;
11911;SDS011;6016;41.928;25.556;2022-09-25T14:37:11;2.65;;;2.10;;
11911;SDS011;6016;41.928;25.556;2022-09-25T14:39:53;6.13;;;2.38;;
11911;SDS011;6016;41.928;25.556;2022-09-25T14:45:39;4.70;;;2.33;;
11911;SDS011;6016;41.928;25.556;2022-09-25T14:48:17;3.05;;;2.58;;
11911;SDS011;6016;41.928;25.556;2022-09-25T14:50:50;6.27;;;2.70;;
11911;SDS011;6016;41.928;25.556;2022-09-25T14:53:22;3.72;;;2.38;;
11911;SDS011;6016;41.928;25.556;2022-09-25T14:55:52;4.43;;;2.50;;
11911;SDS011;6016;41.928;25.556;2022-09-25T14:58:22;4.43;;;3.13;;
11911;SDS011;6016;41.928;25.556;2022-09-25T15:00:53;4.90;;;2.90;;
11911;SDS011;6016;41.928;25.556;2022-09-25T15:03:25;4.55;;;3.03;;
11911;SDS011;6016;41.928;25.556;2022-09-25T15:05:57;4.60;;;2.67;;
11911;SDS011;6016;41.928;25.556;2022-09-25T15:08:29;2.83;;;2.35;;
11911;SDS011;6016;41.928;25.556;2022-09-25T15:11:00;4.72;;;3.15;;
11911;SDS011;6016;41.928;25.556;2022-09-25T15:13:30;9.65;;;4.13;;
11911;SDS011;6016;41.928;25.556;2022-09-25T15:15:58;7.00;;;2.97;;
11911;SDS011;6016;41.928;25.556;2022-09-25T15:18:45;4.38;;;3.13;;
11911;SDS011;6016;41.928;25.556;2022-09-25T15:21:19;9.10;;;3.90;;
11911;SDS011;6016;41.928;25.556;2022-09-25T15:23:49;5.10;;;2.90;;
11911;SDS011;6016;41.928;25.556;2022-09-25T15:26:17;7.68;;;3.53;;
11911;SDS011;6016;41.928;25.556;2022-09-25T15:28:46;8.50;;;2.83;;
11911;SDS011;6016;41.928;25.556;2022-09-25T15:31:15;3.60;;;3.00;;
11911;SDS011;6016;41.928;25.556;2022-09-25T15:33:43;7.68;;;3.10;;
11911;SDS011;6016;41.928;25.556;2022-09-25T15:36:14;3.40;;;2.80;;
11911;SDS011;6016;41.928;25.556;2022-09-25T15:38:50;4.47;;;3.08;;
11911;SDS011;6016;41.928;25.556;2022-09-25T15:41:18;3.17;;;2.75;;
11911;SDS011;6016;41.928;25.556;2022-09-25T15:43:48;4.85;;;2.78;;
11911;SDS011;6016;41.928;25.556;2022-09-25T15:46:35;3.97;;;2.90;;